sensor_id;sensor_type;location;lat;lon;timestamp;temperature;humidity
3550;DHT22;45572;48.804;8.330;2023-03-14T00:01:16;12.10;88.30
3550;DHT22;45572;48.804;8.330;2023-03-14T00:03:44;12.10;88.60
3550;DHT22;45572;48.804;8.330;2023-03-14T00:06:14;12.00;88.30
3550;DHT22;45572;48.804;8.330;2023-03-14T00:08:42;12.00;89.30
3550;DHT22;45572;48.804;8.330;2023-03-14T00:11:13;12.10;88.40
3550;DHT22;45572;48.804;8.330;2023-03-14T00:13:41;12.00;88.50
3550;DHT22;45572;48.804;8.330;2023-03-14T00:16:11;12.00;89.40
3550;DHT22;45572;48.804;8.330;2023-03-14T00:18:39;11.90;89.60
3550;DHT22;45572;48.804;8.330;2023-03-14T00:21:09;12.00;88.80
3550;DHT22;45572;48.804;8.330;2023-03-14T00:23:40;12.10;88.30
3550;DHT22;45572;48.804;8.330;2023-03-14T00:26:10;12.10;89.40
3550;DHT22;45572;48.804;8.330;2023-03-14T00:28:39;12.00;89.50
3550;DHT22;45572;48.804;8.330;2023-03-14T00:31:10;12.00;89.50
3550;DHT22;45572;48.804;8.330;2023-03-14T00:33:40;12.00;88.70
3550;DHT22;45572;48.804;8.330;2023-03-14T00:36:10;12.10;88.30
3550;DHT22;45572;48.804;8.330;2023-03-14T00:38:42;12.10;88.30
3550;DHT22;45572;48.804;8.330;2023-03-14T00:41:12;12.20;87.30
3550;DHT22;45572;48.804;8.330;2023-03-14T00:43:41;12.20;87.50
3550;DHT22;45572;48.804;8.330;2023-03-14T00:46:09;12.20;87.80
3550;DHT22;45572;48.804;8.330;2023-03-14T00:48:37;12.20;88.70
3550;DHT22;45572;48.804;8.330;2023-03-14T00:51:06;12.10;88.80
3550;DHT22;45572;48.804;8.330;2023-03-14T00:53:36;12.20;89.70
3550;DHT22;45572;48.804;8.330;2023-03-14T00:56:08;12.20;88.40
3550;DHT22;45572;48.804;8.330;2023-03-14T00:58:36;12.10;88.50
3550;DHT22;45572;48.804;8.330;2023-03-14T01:01:06;12.10;88.20
3550;DHT22;45572;48.804;8.330;2023-03-14T01:03:34;12.20;88.10
3550;DHT22;45572;48.804;8.330;2023-03-14T01:06:11;12.20;87.20
3550;DHT22;45572;48.804;8.330;2023-03-14T01:08:42;12.20;87.70
3550;DHT22;45572;48.804;8.330;2023-03-14T01:11:14;12.20;88.20
3550;DHT22;45572;48.804;8.330;2023-03-14T01:13:42;12.20;88.10
3550;DHT22;45572;48.804;8.330;2023-03-14T01:16:11;12.20;87.60
3550;DHT22;45572;48.804;8.330;2023-03-14T01:18:41;12.20;87.90
3550;DHT22;45572;48.804;8.330;2023-03-14T01:21:11;12.20;87.50
3550;DHT22;45572;48.804;8.330;2023-03-14T01:23:39;12.20;87.20
3550;DHT22;45572;48.804;8.330;2023-03-14T01:26:08;12.20;86.50
3550;DHT22;45572;48.804;8.330;2023-03-14T01:28:39;12.20;86.80
3550;DHT22;45572;48.804;8.330;2023-03-14T01:31:09;12.20;86.50
3550;DHT22;45572;48.804;8.330;2023-03-14T01:33:37;12.20;86.60
3550;DHT22;45572;48.804;8.330;2023-03-14T01:36:05;12.20;85.40
3550;DHT22;45572;48.804;8.330;2023-03-14T01:38:35;12.30;85.50
3550;DHT22;45572;48.804;8.330;2023-03-14T01:41:04;12.30;85.60
3550;DHT22;45572;48.804;8.330;2023-03-14T01:43:33;12.30;85.30
3550;DHT22;45572;48.804;8.330;2023-03-14T01:46:19;12.30;85.20
3550;DHT22;45572;48.804;8.330;2023-03-14T01:48:53;12.30;85.10
3550;DHT22;45572;48.804;8.330;2023-03-14T01:51:27;12.30;85.40
3550;DHT22;45572;48.804;8.330;2023-03-14T01:54:04;12.30;84.90
3550;DHT22;45572;48.804;8.330;2023-03-14T01:56:33;12.30;85.20
3550;DHT22;45572;48.804;8.330;2023-03-14T01:59:04;12.20;85.00
3550;DHT22;45572;48.804;8.330;2023-03-14T02:01:35;12.30;84.60
3550;DHT22;45572;48.804;8.330;2023-03-14T02:04:05;12.30;84.90
3550;DHT22;45572;48.804;8.330;2023-03-14T02:06:40;12.20;85.20
3550;DHT22;45572;48.804;8.330;2023-03-14T02:09:10;12.20;85.10
3550;DHT22;45572;48.804;8.330;2023-03-14T02:11:38;12.20;85.30
3550;DHT22;45572;48.804;8.330;2023-03-14T02:14:21;12.20;85.00
3550;DHT22;45572;48.804;8.330;2023-03-14T02:17:00;12.10;85.50
3550;DHT22;45572;48.804;8.330;2023-03-14T02:20:07;12.10;84.70
3550;DHT22;45572;48.804;8.330;2023-03-14T02:22:42;12.10;84.90
3550;DHT22;45572;48.804;8.330;2023-03-14T02:25:15;12.10;84.50
3550;DHT22;45572;48.804;8.330;2023-03-14T02:27:46;12.10;84.60
3550;DHT22;45572;48.804;8.330;2023-03-14T02:30:17;12.10;84.60
3550;DHT22;45572;48.804;8.330;2023-03-14T02:32:47;12.20;84.00
3550;DHT22;45572;48.804;8.330;2023-03-14T02:35:18;12.10;84.00
3550;DHT22;45572;48.804;8.330;2023-03-14T02:37:50;12.10;84.10
3550;DHT22;45572;48.804;8.330;2023-03-14T02:40:20;12.20;84.00
3550;DHT22;45572;48.804;8.330;2023-03-14T02:42:52;12.20;83.80
3550;DHT22;45572;48.804;8.330;2023-03-14T02:45:34;12.10;84.10
3550;DHT22;45572;48.804;8.330;2023-03-14T02:48:05;12.10;83.70
3550;DHT22;45572;48.804;8.330;2023-03-14T02:50:36;12.10;83.20
3550;DHT22;45572;48.804;8.330;2023-03-14T02:53:05;12.10;83.20
3550;DHT22;45572;48.804;8.330;2023-03-14T02:55:33;12.10;82.60
3550;DHT22;45572;48.804;8.330;2023-03-14T02:58:08;12.20;82.10
3550;DHT22;45572;48.804;8.330;2023-03-14T03:00:36;12.10;82.50
3550;DHT22;45572;48.804;8.330;2023-03-14T03:03:06;12.20;81.90
3550;DHT22;45572;48.804;8.330;2023-03-14T03:05:34;12.20;81.60
3550;DHT22;45572;48.804;8.330;2023-03-14T03:08:02;12.20;81.00
3550;DHT22;45572;48.804;8.330;2023-03-14T03:10:32;12.20;80.60
3550;DHT22;45572;48.804;8.330;2023-03-14T03:13:00;12.20;81.00
3550;DHT22;45572;48.804;8.330;2023-03-14T03:15:29;12.20;80.10
3550;DHT22;45572;48.804;8.330;2023-03-14T03:17:57;12.20;80.60
3550;DHT22;45572;48.804;8.330;2023-03-14T03:20:25;12.30;79.70
3550;DHT22;45572;48.804;8.330;2023-03-14T03:22:53;12.30;79.90
3550;DHT22;45572;48.804;8.330;2023-03-14T03:25:21;12.30;79.10
3550;DHT22;45572;48.804;8.330;2023-03-14T03:27:49;12.40;78.60
3550;DHT22;45572;48.804;8.330;2023-03-14T03:30:18;12.30;79.60
3550;DHT22;45572;48.804;8.330;2023-03-14T03:32:49;12.40;79.10
3550;DHT22;45572;48.804;8.330;2023-03-14T03:35:17;12.40;78.70
3550;DHT22;45572;48.804;8.330;2023-03-14T03:37:45;12.40;79.00
3550;DHT22;45572;48.804;8.330;2023-03-14T03:40:13;12.30;79.70
3550;DHT22;45572;48.804;8.330;2023-03-14T03:42:41;12.30;79.00
3550;DHT22;45572;48.804;8.330;2023-03-14T03:45:10;12.30;79.40
3550;DHT22;45572;48.804;8.330;2023-03-14T03:47:49;12.20;78.50
3550;DHT22;45572;48.804;8.330;2023-03-14T03:50:17;12.20;78.70
3550;DHT22;45572;48.804;8.330;2023-03-14T03:52:45;12.20;78.20
3550;DHT22;45572;48.804;8.330;2023-03-14T03:55:12;12.20;78.20
3550;DHT22;45572;48.804;8.330;2023-03-14T03:57:41;12.20;78.50
3550;DHT22;45572;48.804;8.330;2023-03-14T04:00:11;12.20;78.50
3550;DHT22;45572;48.804;8.330;2023-03-14T04:03:04;12.20;78.20
3550;DHT22;45572;48.804;8.330;2023-03-14T04:05:32;12.20;78.60
3550;DHT22;45572;48.804;8.330;2023-03-14T04:08:06;12.20;78.60
3550;DHT22;45572;48.804;8.330;2023-03-14T04:10:35;12.20;78.90
3550;DHT22;45572;48.804;8.330;2023-03-14T04:13:07;12.20;78.80
3550;DHT22;45572;48.804;8.330;2023-03-14T04:15:37;12.10;78.50
3550;DHT22;45572;48.804;8.330;2023-03-14T04:18:13;12.10;79.00
3550;DHT22;45572;48.804;8.330;2023-03-14T04:20:42;12.10;78.40
3550;DHT22;45572;48.804;8.330;2023-03-14T04:23:11;12.10;78.50
3550;DHT22;45572;48.804;8.330;2023-03-14T04:25:38;12.10;78.60
3550;DHT22;45572;48.804;8.330;2023-03-14T04:28:07;12.00;78.70
3550;DHT22;45572;48.804;8.330;2023-03-14T04:30:36;12.00;78.70
3550;DHT22;45572;48.804;8.330;2023-03-14T04:33:09;12.00;79.00
3550;DHT22;45572;48.804;8.330;2023-03-14T04:35:46;11.90;78.90
3550;DHT22;45572;48.804;8.330;2023-03-14T04:38:15;11.90;79.60
3550;DHT22;45572;48.804;8.330;2023-03-14T04:40:45;11.90;79.00
3550;DHT22;45572;48.804;8.330;2023-03-14T04:43:14;12.00;78.50
3550;DHT22;45572;48.804;8.330;2023-03-14T04:45:48;12.00;79.10
3550;DHT22;45572;48.804;8.330;2023-03-14T04:48:16;11.90;79.10
3550;DHT22;45572;48.804;8.330;2023-03-14T04:50:46;11.90;79.20
3550;DHT22;45572;48.804;8.330;2023-03-14T04:53:14;11.90;79.60
3550;DHT22;45572;48.804;8.330;2023-03-14T04:55:48;11.90;79.70
3550;DHT22;45572;48.804;8.330;2023-03-14T04:58:17;11.90;80.10
3550;DHT22;45572;48.804;8.330;2023-03-14T05:00:47;11.90;80.20
3550;DHT22;45572;48.804;8.330;2023-03-14T05:03:33;11.90;80.20
3550;DHT22;45572;48.804;8.330;2023-03-14T05:06:14;11.90;79.90
3550;DHT22;45572;48.804;8.330;2023-03-14T05:09:01;12.00;79.30
3550;DHT22;45572;48.804;8.330;2023-03-14T05:11:51;12.00;79.60
3550;DHT22;45572;48.804;8.330;2023-03-14T05:14:39;12.10;79.80
3550;DHT22;45572;48.804;8.330;2023-03-14T05:17:27;12.10;79.60
3550;DHT22;45572;48.804;8.330;2023-03-14T05:20:08;12.10;79.00
3550;DHT22;45572;48.804;8.330;2023-03-14T05:23:00;12.10;79.50
3550;DHT22;45572;48.804;8.330;2023-03-14T05:25:47;12.10;79.80
3550;DHT22;45572;48.804;8.330;2023-03-14T05:28:31;12.10;79.70
3550;DHT22;45572;48.804;8.330;2023-03-14T05:31:10;12.10;79.80
3550;DHT22;45572;48.804;8.330;2023-03-14T05:33:57;12.10;79.70
3550;DHT22;45572;48.804;8.330;2023-03-14T05:36:39;12.00;79.40
3550;DHT22;45572;48.804;8.330;2023-03-14T05:39:23;12.00;79.70
3550;DHT22;45572;48.804;8.330;2023-03-14T05:42:05;11.90;80.20
3550;DHT22;45572;48.804;8.330;2023-03-14T05:44:48;11.90;79.50
3550;DHT22;45572;48.804;8.330;2023-03-14T05:47:36;11.90;79.80
3550;DHT22;45572;48.804;8.330;2023-03-14T05:50:15;11.90;80.10
3550;DHT22;45572;48.804;8.330;2023-03-14T05:53:03;11.90;79.70
3550;DHT22;45572;48.804;8.330;2023-03-14T05:55:53;11.90;79.60
3550;DHT22;45572;48.804;8.330;2023-03-14T05:58:35;11.90;79.90
3550;DHT22;45572;48.804;8.330;2023-03-14T06:01:22;11.90;79.80
3550;DHT22;45572;48.804;8.330;2023-03-14T06:04:10;11.90;79.70
3550;DHT22;45572;48.804;8.330;2023-03-14T06:06:38;11.90;79.30
3550;DHT22;45572;48.804;8.330;2023-03-14T06:09:07;11.90;79.50
3550;DHT22;45572;48.804;8.330;2023-03-14T06:11:39;11.90;79.60
3550;DHT22;45572;48.804;8.330;2023-03-14T06:14:09;11.90;79.10
3550;DHT22;45572;48.804;8.330;2023-03-14T06:16:40;12.00;78.90
3550;DHT22;45572;48.804;8.330;2023-03-14T06:19:09;12.00;79.30
3550;DHT22;45572;48.804;8.330;2023-03-14T06:21:38;11.90;79.30
3550;DHT22;45572;48.804;8.330;2023-03-14T06:24:06;11.90;79.40
3550;DHT22;45572;48.804;8.330;2023-03-14T06:26:42;11.90;78.90
3550;DHT22;45572;48.804;8.330;2023-03-14T06:29:10;12.00;78.70
3550;DHT22;45572;48.804;8.330;2023-03-14T06:31:40;12.00;79.00
3550;DHT22;45572;48.804;8.330;2023-03-14T06:34:09;12.00;79.00
3550;DHT22;45572;48.804;8.330;2023-03-14T06:36:38;12.10;79.50
3550;DHT22;45572;48.804;8.330;2023-03-14T06:39:07;12.10;79.20
3550;DHT22;45572;48.804;8.330;2023-03-14T06:41:38;12.10;79.40
3550;DHT22;45572;48.804;8.330;2023-03-14T06:44:09;12.00;79.60
3550;DHT22;45572;48.804;8.330;2023-03-14T06:46:37;12.00;79.60
3550;DHT22;45572;48.804;8.330;2023-03-14T06:49:05;12.10;79.70
3550;DHT22;45572;48.804;8.330;2023-03-14T06:51:33;12.10;79.60
3550;DHT22;45572;48.804;8.330;2023-03-14T06:54:03;12.10;79.60
3550;DHT22;45572;48.804;8.330;2023-03-14T06:56:32;12.20;79.30
3550;DHT22;45572;48.804;8.330;2023-03-14T06:59:01;12.30;79.60
3550;DHT22;45572;48.804;8.330;2023-03-14T07:01:36;12.30;79.00
3550;DHT22;45572;48.804;8.330;2023-03-14T07:04:10;12.30;78.80
3550;DHT22;45572;48.804;8.330;2023-03-14T07:06:43;12.40;78.80
3550;DHT22;45572;48.804;8.330;2023-03-14T07:09:14;12.40;79.00
3550;DHT22;45572;48.804;8.330;2023-03-14T07:11:51;12.40;79.50
3550;DHT22;45572;48.804;8.330;2023-03-14T07:14:19;12.50;78.70
3550;DHT22;45572;48.804;8.330;2023-03-14T07:16:49;12.40;77.90
3550;DHT22;45572;48.804;8.330;2023-03-14T07:19:17;12.40;77.20
3550;DHT22;45572;48.804;8.330;2023-03-14T07:21:45;12.40;77.70
3550;DHT22;45572;48.804;8.330;2023-03-14T07:24:15;12.40;77.90
3550;DHT22;45572;48.804;8.330;2023-03-14T07:26:43;12.50;78.80
3550;DHT22;45572;48.804;8.330;2023-03-14T07:29:11;12.70;81.10
3550;DHT22;45572;48.804;8.330;2023-03-14T07:31:40;12.80;77.10
3550;DHT22;45572;48.804;8.330;2023-03-14T07:34:12;12.70;77.10
3550;DHT22;45572;48.804;8.330;2023-03-14T07:36:45;12.60;77.10
3550;DHT22;45572;48.804;8.330;2023-03-14T07:39:12;12.60;77.30
3550;DHT22;45572;48.804;8.330;2023-03-14T07:42:00;12.60;77.20
3550;DHT22;45572;48.804;8.330;2023-03-14T07:44:48;12.50;76.90
3550;DHT22;45572;48.804;8.330;2023-03-14T07:47:16;12.60;76.50
3550;DHT22;45572;48.804;8.330;2023-03-14T07:49:45;12.80;77.20
3550;DHT22;45572;48.804;8.330;2023-03-14T07:52:13;12.90;76.00
3550;DHT22;45572;48.804;8.330;2023-03-14T07:54:41;13.00;76.70
3550;DHT22;45572;48.804;8.330;2023-03-14T07:57:08;13.00;76.30
3550;DHT22;45572;48.804;8.330;2023-03-14T07:59:36;13.00;75.70
3550;DHT22;45572;48.804;8.330;2023-03-14T08:02:04;13.00;76.00
3550;DHT22;45572;48.804;8.330;2023-03-14T08:04:37;13.00;75.60
3550;DHT22;45572;48.804;8.330;2023-03-14T08:07:07;13.00;75.20
3550;DHT22;45572;48.804;8.330;2023-03-14T08:09:34;13.00;75.70
3550;DHT22;45572;48.804;8.330;2023-03-14T08:12:02;13.00;75.20
3550;DHT22;45572;48.804;8.330;2023-03-14T08:14:30;13.00;75.60
3550;DHT22;45572;48.804;8.330;2023-03-14T08:16:58;13.00;76.00
3550;DHT22;45572;48.804;8.330;2023-03-14T08:19:26;13.00;75.60
3550;DHT22;45572;48.804;8.330;2023-03-14T08:21:54;13.10;76.50
3550;DHT22;45572;48.804;8.330;2023-03-14T08:24:23;13.00;77.00
3550;DHT22;45572;48.804;8.330;2023-03-14T08:26:50;12.90;78.00
3550;DHT22;45572;48.804;8.330;2023-03-14T08:29:18;12.90;78.60
3550;DHT22;45572;48.804;8.330;2023-03-14T08:31:46;12.80;78.70
3550;DHT22;45572;48.804;8.330;2023-03-14T08:34:15;12.60;79.30
3550;DHT22;45572;48.804;8.330;2023-03-14T08:36:43;12.50;79.60
3550;DHT22;45572;48.804;8.330;2023-03-14T08:39:11;12.50;81.30
3550;DHT22;45572;48.804;8.330;2023-03-14T08:41:42;12.60;80.50
3550;DHT22;45572;48.804;8.330;2023-03-14T08:44:13;12.80;80.40
3550;DHT22;45572;48.804;8.330;2023-03-14T08:46:45;12.80;80.10
3550;DHT22;45572;48.804;8.330;2023-03-14T08:49:14;12.80;79.80
3550;DHT22;45572;48.804;8.330;2023-03-14T08:51:42;12.80;78.40
3550;DHT22;45572;48.804;8.330;2023-03-14T08:54:10;12.80;78.70
3550;DHT22;45572;48.804;8.330;2023-03-14T08:56:38;12.80;78.30
3550;DHT22;45572;48.804;8.330;2023-03-14T08:59:08;12.90;78.10
3550;DHT22;45572;48.804;8.330;2023-03-14T09:01:37;12.90;78.60
3550;DHT22;45572;48.804;8.330;2023-03-14T09:04:05;13.00;78.30
3550;DHT22;45572;48.804;8.330;2023-03-14T09:06:35;13.00;77.80
3550;DHT22;45572;48.804;8.330;2023-03-14T09:09:03;13.00;78.30
3550;DHT22;45572;48.804;8.330;2023-03-14T09:11:31;13.00;78.20
3550;DHT22;45572;48.804;8.330;2023-03-14T09:14:01;13.00;78.10
3550;DHT22;45572;48.804;8.330;2023-03-14T09:16:33;13.00;78.30
3550;DHT22;45572;48.804;8.330;2023-03-14T09:19:00;13.00;78.60
3550;DHT22;45572;48.804;8.330;2023-03-14T09:21:30;13.00;78.00
3550;DHT22;45572;48.804;8.330;2023-03-14T09:23:58;13.00;78.30
3550;DHT22;45572;48.804;8.330;2023-03-14T09:26:26;13.00;77.50
3550;DHT22;45572;48.804;8.330;2023-03-14T09:28:54;13.00;77.20
3550;DHT22;45572;48.804;8.330;2023-03-14T09:31:25;13.20;77.40
3550;DHT22;45572;48.804;8.330;2023-03-14T09:33:56;13.20;77.00
3550;DHT22;45572;48.804;8.330;2023-03-14T09:36:25;13.40;76.50
3550;DHT22;45572;48.804;8.330;2023-03-14T09:38:55;13.40;75.70
3550;DHT22;45572;48.804;8.330;2023-03-14T09:41:25;13.30;75.40
3550;DHT22;45572;48.804;8.330;2023-03-14T09:44:00;13.30;75.40
3550;DHT22;45572;48.804;8.330;2023-03-14T09:46:34;13.30;75.60
3550;DHT22;45572;48.804;8.330;2023-03-14T09:49:12;13.20;76.50
3550;DHT22;45572;48.804;8.330;2023-03-14T09:51:42;13.00;79.50
3550;DHT22;45572;48.804;8.330;2023-03-14T09:54:27;12.80;82.60
3550;DHT22;45572;48.804;8.330;2023-03-14T09:56:59;12.50;83.10
3550;DHT22;45572;48.804;8.330;2023-03-14T09:59:27;12.50;84.20
3550;DHT22;45572;48.804;8.330;2023-03-14T10:01:57;12.50;84.60
3550;DHT22;45572;48.804;8.330;2023-03-14T10:04:30;12.60;84.70
3550;DHT22;45572;48.804;8.330;2023-03-14T10:07:00;12.50;84.40
3550;DHT22;45572;48.804;8.330;2023-03-14T10:09:33;12.30;85.40
3550;DHT22;45572;48.804;8.330;2023-03-14T10:12:02;12.20;85.70
3550;DHT22;45572;48.804;8.330;2023-03-14T10:14:46;12.10;87.30
3550;DHT22;45572;48.804;8.330;2023-03-14T10:17:14;11.90;87.70
3550;DHT22;45572;48.804;8.330;2023-03-14T10:19:54;11.80;89.00
3550;DHT22;45572;48.804;8.330;2023-03-14T10:22:26;11.60;89.40
3550;DHT22;45572;48.804;8.330;2023-03-14T10:24:55;11.50;90.20
3550;DHT22;45572;48.804;8.330;2023-03-14T10:27:29;11.40;91.10
3550;DHT22;45572;48.804;8.330;2023-03-14T10:30:04;11.30;90.30
3550;DHT22;45572;48.804;8.330;2023-03-14T10:32:37;11.10;91.60
3550;DHT22;45572;48.804;8.330;2023-03-14T10:35:17;11.00;92.40
3550;DHT22;45572;48.804;8.330;2023-03-14T10:37:50;11.00;92.20
3550;DHT22;45572;48.804;8.330;2023-03-14T10:40:19;11.10;92.40
3550;DHT22;45572;48.804;8.330;2023-03-14T10:42:48;11.20;93.40
3550;DHT22;45572;48.804;8.330;2023-03-14T10:45:28;11.30;93.00
3550;DHT22;45572;48.804;8.330;2023-03-14T10:47:59;11.30;91.20
3550;DHT22;45572;48.804;8.330;2023-03-14T10:50:31;11.30;93.30
3550;DHT22;45572;48.804;8.330;2023-03-14T10:53:02;11.30;91.90
3550;DHT22;45572;48.804;8.330;2023-03-14T10:55:41;11.30;93.20
3550;DHT22;45572;48.804;8.330;2023-03-14T10:58:23;11.40;93.20
3550;DHT22;45572;48.804;8.330;2023-03-14T11:01:00;11.20;91.00
3550;DHT22;45572;48.804;8.330;2023-03-14T11:03:32;11.10;93.20
3550;DHT22;45572;48.804;8.330;2023-03-14T11:06:09;10.90;93.30
3550;DHT22;45572;48.804;8.330;2023-03-14T11:08:45;10.80;93.00
3550;DHT22;45572;48.804;8.330;2023-03-14T11:11:19;10.70;93.60
3550;DHT22;45572;48.804;8.330;2023-03-14T11:13:56;10.60;94.70
3550;DHT22;45572;48.804;8.330;2023-03-14T11:16:29;10.50;95.20
3550;DHT22;45572;48.804;8.330;2023-03-14T11:19:17;10.50;95.60
3550;DHT22;45572;48.804;8.330;2023-03-14T11:21:54;10.40;95.80
3550;DHT22;45572;48.804;8.330;2023-03-14T11:24:31;10.30;96.20
3550;DHT22;45572;48.804;8.330;2023-03-14T11:27:08;10.30;96.40
3550;DHT22;45572;48.804;8.330;2023-03-14T11:29:53;10.20;95.20
3550;DHT22;45572;48.804;8.330;2023-03-14T11:32:34;10.00;95.70
3550;DHT22;45572;48.804;8.330;2023-03-14T11:35:16;9.90;96.20
3550;DHT22;45572;48.804;8.330;2023-03-14T11:37:52;9.90;96.20
3550;DHT22;45572;48.804;8.330;2023-03-14T11:40:21;10.00;96.40
3550;DHT22;45572;48.804;8.330;2023-03-14T11:43:00;10.10;95.50
3550;DHT22;45572;48.804;8.330;2023-03-14T11:45:34;10.10;95.30
3550;DHT22;45572;48.804;8.330;2023-03-14T11:48:17;10.20;94.40
3550;DHT22;45572;48.804;8.330;2023-03-14T11:50:52;10.20;92.20
3550;DHT22;45572;48.804;8.330;2023-03-14T11:53:30;10.40;90.50
3550;DHT22;45572;48.804;8.330;2023-03-14T11:56:03;10.40;87.30
3550;DHT22;45572;48.804;8.330;2023-03-14T11:58:35;10.50;88.90
3550;DHT22;45572;48.804;8.330;2023-03-14T12:01:08;11.30;87.60
3550;DHT22;45572;48.804;8.330;2023-03-14T12:03:44;12.00;83.00
3550;DHT22;45572;48.804;8.330;2023-03-14T12:06:17;12.70;83.10
3550;DHT22;45572;48.804;8.330;2023-03-14T12:08:52;13.70;80.50
3550;DHT22;45572;48.804;8.330;2023-03-14T12:11:30;13.50;76.50
3550;DHT22;45572;48.804;8.330;2023-03-14T12:14:00;13.30;76.20
3550;DHT22;45572;48.804;8.330;2023-03-14T12:16:37;13.30;75.80
3550;DHT22;45572;48.804;8.330;2023-03-14T12:19:28;13.10;72.60
3550;DHT22;45572;48.804;8.330;2023-03-14T12:22:00;12.90;73.40
3550;DHT22;45572;48.804;8.330;2023-03-14T12:24:32;12.80;73.20
3550;DHT22;45572;48.804;8.330;2023-03-14T12:27:02;12.80;74.10
3550;DHT22;45572;48.804;8.330;2023-03-14T12:29:32;12.90;72.60
3550;DHT22;45572;48.804;8.330;2023-03-14T12:32:12;13.10;70.90
3550;DHT22;45572;48.804;8.330;2023-03-14T12:34:49;13.00;70.50
3550;DHT22;45572;48.804;8.330;2023-03-14T12:37:23;12.60;68.00
3550;DHT22;45572;48.804;8.330;2023-03-14T12:40:05;12.50;68.40
3550;DHT22;45572;48.804;8.330;2023-03-14T12:42:45;12.50;67.90
3550;DHT22;45572;48.804;8.330;2023-03-14T12:45:24;12.50;67.30
3550;DHT22;45572;48.804;8.330;2023-03-14T12:48:00;12.70;68.20
3550;DHT22;45572;48.804;8.330;2023-03-14T12:50:33;12.80;68.40
3550;DHT22;45572;48.804;8.330;2023-03-14T12:56:09;13.20;65.10
3550;DHT22;45572;48.804;8.330;2023-03-14T12:58:44;13.20;65.00
3550;DHT22;45572;48.804;8.330;2023-03-14T13:01:19;13.00;63.40
3550;DHT22;45572;48.804;8.330;2023-03-14T13:03:51;13.00;66.20
3550;DHT22;45572;48.804;8.330;2023-03-14T13:06:46;12.80;63.40
3550;DHT22;45572;48.804;8.330;2023-03-14T13:12:17;12.60;63.70
3550;DHT22;45572;48.804;8.330;2023-03-14T13:14:48;12.60;63.40
3550;DHT22;45572;48.804;8.330;2023-03-14T13:17:24;12.30;61.10
3550;DHT22;45572;48.804;8.330;2023-03-14T13:20:09;12.30;61.50
3550;DHT22;45572;48.804;8.330;2023-03-14T13:22:46;12.00;60.90
3550;DHT22;45572;48.804;8.330;2023-03-14T13:25:16;11.90;61.70
3550;DHT22;45572;48.804;8.330;2023-03-14T13:27:52;11.80;61.30
3550;DHT22;45572;48.804;8.330;2023-03-14T13:30:24;11.80;60.60
3550;DHT22;45572;48.804;8.330;2023-03-14T13:32:55;11.80;60.10
3550;DHT22;45572;48.804;8.330;2023-03-14T13:35:26;12.00;58.90
3550;DHT22;45572;48.804;8.330;2023-03-14T13:37:57;12.10;56.50
3550;DHT22;45572;48.804;8.330;2023-03-14T13:40:38;12.10;57.50
3550;DHT22;45572;48.804;8.330;2023-03-14T13:43:16;12.10;57.20
3550;DHT22;45572;48.804;8.330;2023-03-14T13:45:48;12.00;57.30
3550;DHT22;45572;48.804;8.330;2023-03-14T13:48:17;11.80;57.80
3550;DHT22;45572;48.804;8.330;2023-03-14T13:50:49;11.80;59.20
3550;DHT22;45572;48.804;8.330;2023-03-14T13:53:20;11.80;59.50
3550;DHT22;45572;48.804;8.330;2023-03-14T13:55:49;11.70;59.10
3550;DHT22;45572;48.804;8.330;2023-03-14T13:58:24;11.80;59.40
3550;DHT22;45572;48.804;8.330;2023-03-14T14:01:02;11.80;58.50
3550;DHT22;45572;48.804;8.330;2023-03-14T14:03:32;12.00;59.70
3550;DHT22;45572;48.804;8.330;2023-03-14T14:06:10;12.10;60.30
3550;DHT22;45572;48.804;8.330;2023-03-14T14:08:42;12.40;59.30
3550;DHT22;45572;48.804;8.330;2023-03-14T14:11:19;12.20;58.70
3550;DHT22;45572;48.804;8.330;2023-03-14T14:13:55;12.20;60.30
3550;DHT22;45572;48.804;8.330;2023-03-14T14:16:25;12.10;58.20
3550;DHT22;45572;48.804;8.330;2023-03-14T14:18:56;12.10;59.90
3550;DHT22;45572;48.804;8.330;2023-03-14T14:21:25;11.90;59.00
3550;DHT22;45572;48.804;8.330;2023-03-14T14:23:55;11.80;59.60
3550;DHT22;45572;48.804;8.330;2023-03-14T14:26:26;11.60;59.20
3550;DHT22;45572;48.804;8.330;2023-03-14T14:29:05;11.70;60.00
3550;DHT22;45572;48.804;8.330;2023-03-14T14:31:35;11.60;58.90
3550;DHT22;45572;48.804;8.330;2023-03-14T14:34:04;11.60;59.90
3550;DHT22;45572;48.804;8.330;2023-03-14T14:36:36;11.50;59.70
3550;DHT22;45572;48.804;8.330;2023-03-14T14:39:10;11.50;60.10
3550;DHT22;45572;48.804;8.330;2023-03-14T14:41:40;11.50;61.00
3550;DHT22;45572;48.804;8.330;2023-03-14T14:44:13;11.50;60.70
3550;DHT22;45572;48.804;8.330;2023-03-14T14:46:42;11.60;60.30
3550;DHT22;45572;48.804;8.330;2023-03-14T14:49:13;11.60;60.80
3550;DHT22;45572;48.804;8.330;2023-03-14T14:51:43;11.60;60.30
3550;DHT22;45572;48.804;8.330;2023-03-14T14:54:15;11.80;60.40
3550;DHT22;45572;48.804;8.330;2023-03-14T14:56:47;11.80;60.70
3550;DHT22;45572;48.804;8.330;2023-03-14T14:59:26;11.90;61.40
3550;DHT22;45572;48.804;8.330;2023-03-14T15:01:56;11.80;61.70
3550;DHT22;45572;48.804;8.330;2023-03-14T15:04:25;11.80;62.00
3550;DHT22;45572;48.804;8.330;2023-03-14T15:07:08;11.80;61.10
3550;DHT22;45572;48.804;8.330;2023-03-14T15:09:36;11.90;61.20
3550;DHT22;45572;48.804;8.330;2023-03-14T15:12:05;11.70;61.10
3550;DHT22;45572;48.804;8.330;2023-03-14T15:14:35;11.70;61.70
3550;DHT22;45572;48.804;8.330;2023-03-14T15:17:08;11.60;61.70
3550;DHT22;45572;48.804;8.330;2023-03-14T15:19:39;11.60;63.00
3550;DHT22;45572;48.804;8.330;2023-03-14T15:22:12;11.80;62.90
3550;DHT22;45572;48.804;8.330;2023-03-14T15:24:40;11.70;61.50
3550;DHT22;45572;48.804;8.330;2023-03-14T15:27:13;11.80;62.60
3550;DHT22;45572;48.804;8.330;2023-03-14T15:29:43;11.80;62.40
3550;DHT22;45572;48.804;8.330;2023-03-14T15:32:12;11.70;62.80
3550;DHT22;45572;48.804;8.330;2023-03-14T15:34:40;11.80;62.80
3550;DHT22;45572;48.804;8.330;2023-03-14T15:37:11;11.90;63.10
3550;DHT22;45572;48.804;8.330;2023-03-14T15:39:40;11.80;62.60
3550;DHT22;45572;48.804;8.330;2023-03-14T15:42:08;11.90;63.30
3550;DHT22;45572;48.804;8.330;2023-03-14T15:44:36;11.80;62.20
3550;DHT22;45572;48.804;8.330;2023-03-14T15:47:05;11.70;62.80
3550;DHT22;45572;48.804;8.330;2023-03-14T15:49:33;11.50;63.10
3550;DHT22;45572;48.804;8.330;2023-03-14T15:52:01;11.40;63.50
3550;DHT22;45572;48.804;8.330;2023-03-14T15:54:29;11.20;63.50
3550;DHT22;45572;48.804;8.330;2023-03-14T15:56:57;11.20;63.90
3550;DHT22;45572;48.804;8.330;2023-03-14T15:59:25;11.20;64.00
3550;DHT22;45572;48.804;8.330;2023-03-14T16:01:54;11.00;64.40
3550;DHT22;45572;48.804;8.330;2023-03-14T16:04:23;11.00;64.90
3550;DHT22;45572;48.804;8.330;2023-03-14T16:06:51;11.00;64.90
3550;DHT22;45572;48.804;8.330;2023-03-14T16:09:19;10.90;65.20
3550;DHT22;45572;48.804;8.330;2023-03-14T16:11:48;11.00;66.30
3550;DHT22;45572;48.804;8.330;2023-03-14T16:14:15;10.90;65.60
3550;DHT22;45572;48.804;8.330;2023-03-14T16:16:43;10.70;66.10
3550;DHT22;45572;48.804;8.330;2023-03-14T16:19:11;10.70;67.60
3550;DHT22;45572;48.804;8.330;2023-03-14T16:21:40;10.70;67.40
3550;DHT22;45572;48.804;8.330;2023-03-14T16:24:09;10.70;67.50
3550;DHT22;45572;48.804;8.330;2023-03-14T16:26:37;10.70;68.10